Time;durP1;ratioP1;P1;durP2;ratioP2;P2;SDS_P1;SDS_P2;PMS_P1;PMS_P2;Temp;Humidity;BMP_temperature;BMP_pressure;BME280_temperature;BME280_humidity;BME280_pressure;Samples;Min_cycle;Max_cycle;Signal;HPM_P1;HPM_P2
2022/08/17 00:00:20;;;;;;;10.93;9.88;;;23.40;99.90;;;;;;5045546;28;20474;-77
2022/08/17 00:03:02;;;;;;;12.60;10.75;;;23.40;99.90;;;;;;5053088;28;20078;-77
2022/08/17 00:05:31;;;;;;;10.88;9.77;;;23.30;99.90;;;;;;5050550;28;20040;-77
2022/08/17 00:07:56;;;;;;;11.85;10.65;;;23.30;99.90;;;;;;5043847;28;20017;-77
2022/08/17 00:10:22;;;;;;;13.63;11.10;;;23.30;99.90;;;;;;5046843;28;20026;-77
2022/08/17 00:12:48;;;;;;;11.70;10.60;;;23.30;99.90;;;;;;5043992;28;20103;-77
2022/08/17 00:15:15;;;;;;;11.98;10.70;;;23.30;99.90;;;;;;5042812;28;20040;-77
2022/08/17 00:17:41;;;;;;;13.65;12.25;;;23.20;99.90;;;;;;5043953;28;20028;-76
2022/08/17 00:20:09;;;;;;;13.40;12.15;;;23.30;99.90;;;;;;5047006;28;20032;-77
2022/08/17 00:22:34;;;;;;;13.60;12.25;;;23.20;99.50;;;;;;5040730;28;20030;-78
2022/08/17 00:25:00;;;;;;;17.23;14.02;;;23.20;99.90;;;;;;5043794;28;20013;-77
2022/08/17 00:27:26;;;;;;;15.75;12.93;;;23.20;99.90;;;;;;5039656;28;20535;-77
2022/08/17 00:29:52;;;;;;;13.57;12.18;;;23.20;99.90;;;;;;5051517;28;20067;-77
2022/08/17 00:32:17;;;;;;;13.73;12.05;;;23.10;99.90;;;;;;5045936;28;20021;-77
2022/08/17 00:34:43;;;;;;;14.23;12.23;;;23.20;99.90;;;;;;5042041;28;20039;-78
2022/08/17 00:37:08;;;;;;;14.50;13.00;;;23.10;99.90;;;;;;5031831;28;20025;-78
2022/08/17 00:39:34;;;;;;;13.75;12.35;;;23.10;99.90;;;;;;5046889;28;20087;-77
2022/08/17 00:42:00;;;;;;;13.43;12.15;;;23.10;99.90;;;;;;5044566;28;20026;-78
2022/08/17 00:44:26;;;;;;;14.63;13.07;;;23.10;99.90;;;;;;5043584;28;20127;-77
2022/08/17 00:46:51;;;;;;;13.98;12.55;;;23.10;99.90;;;;;;5042684;28;20025;-77
2022/08/17 00:49:22;;;;;;;16.45;14.13;;;23.00;99.90;;;;;;5047755;28;20032;-78
2022/08/17 00:52:05;;;;;;;14.35;13.02;;;23.00;99.90;;;;;;5041062;28;20033;-77
2022/08/17 00:54:35;;;;;;;13.55;11.82;;;23.10;99.90;;;;;;5039814;28;20238;-77
2022/08/17 00:57:07;;;;;;;13.90;12.48;;;23.00;99.90;;;;;;5046176;28;20521;-78
2022/08/17 00:59:37;;;;;;;12.80;11.60;;;23.00;99.90;;;;;;5041336;28;20444;-78
2022/08/17 01:02:05;;;;;;;14.23;13.00;;;23.00;99.90;;;;;;5042538;28;20374;-78
2022/08/17 01:04:32;;;;;;;14.23;13.00;;;23.00;99.90;;;;;;5052706;28;20025;-77
2022/08/17 01:06:59;;;;;;;13.90;12.60;;;23.00;99.90;;;;;;5044432;28;20020;-78
2022/08/17 01:09:26;;;;;;;14.95;13.43;;;22.90;99.90;;;;;;5043316;28;20028;-77
2022/08/17 01:11:52;;;;;;;13.13;11.95;;;23.00;99.90;;;;;;5044470;28;20493;-77
2022/08/17 01:14:23;;;;;;;14.93;13.30;;;23.00;99.90;;;;;;5023964;28;20076;-75
2022/08/17 01:16:51;;;;;;;13.60;12.30;;;23.00;99.90;;;;;;5042414;28;20048;-75
2022/08/17 01:19:21;;;;;;;14.05;12.75;;;23.00;99.90;;;;;;5038102;28;20033;-77
2022/08/17 01:22:01;;;;;;;16.05;14.30;;;22.90;99.90;;;;;;5046395;28;20017;-75
2022/08/17 01:24:28;;;;;;;15.00;13.15;;;22.90;99.90;;;;;;5041854;28;20029;-74
2022/08/17 01:26:53;;;;;;;15.45;13.75;;;22.90;99.90;;;;;;5042320;28;20032;-77
2022/08/17 01:29:20;;;;;;;16.70;14.63;;;22.90;99.90;;;;;;5047072;28;20032;-77
2022/08/17 01:31:55;;;;;;;16.17;14.27;;;22.90;99.90;;;;;;5041332;28;20017;-77
2022/08/17 01:34:21;;;;;;;15.82;14.27;;;22.90;99.90;;;;;;5034009;28;20021;-77
2022/08/17 01:36:48;;;;;;;21.33;19.02;;;22.90;99.90;;;;;;5038810;28;20029;-76
2022/08/17 01:39:36;;;;;;;21.17;19.13;;;22.80;99.90;;;;;;5047586;28;20029;-76
2022/08/17 01:42:19;;;;;;;21.58;16.48;;;22.80;99.90;;;;;;5036688;28;20049;-77
2022/08/17 01:44:45;;;;;;;16.73;15.20;;;22.80;99.90;;;;;;5048711;28;20046;-77
2022/08/17 01:47:11;;;;;;;20.77;18.55;;;22.90;99.90;;;;;;5029681;28;20111;-78
2022/08/17 01:49:37;;;;;;;26.23;21.90;;;22.90;99.90;;;;;;5021442;28;20032;-77
2022/08/17 01:52:08;;;;;;;23.67;21.23;;;22.80;99.90;;;;;;5041992;28;20029;-77
2022/08/17 01:54:35;;;;;;;22.77;20.65;;;22.70;99.90;;;;;;5043718;28;20124;-78
2022/08/17 01:57:01;;;;;;;22.02;19.80;;;22.80;99.90;;;;;;5042987;28;20037;-77
2022/08/17 01:59:27;;;;;;;19.02;17.13;;;22.80;99.90;;;;;;5041772;28;20040;-77
2022/08/17 02:01:58;;;;;;;18.35;16.48;;;22.70;99.90;;;;;;5044768;28;20061;-76
2022/08/17 02:04:24;;;;;;;18.83;16.10;;;22.70;99.90;;;;;;5040480;28;20603;-77
2022/08/17 02:06:50;;;;;;;25.55;22.80;;;22.70;99.90;;;;;;5039163;28;20029;-77
2022/08/17 02:09:15;;;;;;;27.23;24.33;;;22.60;99.90;;;;;;5047293;28;20028;-77
2022/08/17 02:11:41;;;;;;;31.20;27.88;;;22.60;99.90;;;;;;5027049;28;20052;-77
2022/08/17 02:14:09;;;;;;;27.40;24.77;;;22.60;99.90;;;;;;5042681;28;20027;-77
2022/08/17 02:16:36;;;;;;;31.33;28.00;;;22.70;99.90;;;;;;5044140;28;20025;-77
2022/08/17 02:19:07;;;;;;;36.60;32.67;;;22.60;99.90;;;;;;5024454;28;20102;-76
2022/08/17 02:21:34;;;;;;;33.92;30.30;;;22.60;99.90;;;;;;5049627;28;20104;-76
2022/08/17 02:23:59;;;;;;;35.85;31.35;;;22.50;99.90;;;;;;5038606;28;20030;-76
2022/08/17 02:26:25;;;;;;;33.35;29.90;;;22.50;99.90;;;;;;5039196;28;20040;-75
2022/08/17 02:28:51;;;;;;;36.17;32.45;;;22.50;99.90;;;;;;5045808;28;20505;-75
2022/08/17 02:31:16;;;;;;;34.85;31.30;;;22.50;99.90;;;;;;5046186;28;20040;-75
2022/08/17 02:33:42;;;;;;;34.35;30.75;;;22.50;99.90;;;;;;5046702;28;20017;-77
2022/08/17 02:36:09;;;;;;;31.48;28.08;;;22.50;99.90;;;;;;5030884;28;20021;-77
2022/08/17 02:38:36;;;;;;;34.58;30.63;;;22.40;99.90;;;;;;5043336;28;20025;-77
2022/08/17 02:41:02;;;;;;;32.47;28.67;;;22.40;99.90;;;;;;5045852;28;20033;-77
2022/08/17 02:43:28;;;;;;;33.78;30.15;;;22.40;99.90;;;;;;5041726;28;20493;-76
2022/08/17 02:45:54;;;;;;;38.08;34.05;;;22.40;99.90;;;;;;5050196;28;20092;-75
2022/08/17 02:48:20;;;;;;;35.38;31.58;;;22.40;99.90;;;;;;5049671;28;20025;-77
2022/08/17 02:50:46;;;;;;;38.15;32.10;;;22.30;99.90;;;;;;5051025;28;20024;-77
2022/08/17 02:53:11;;;;;;;36.65;32.75;;;22.30;99.90;;;;;;5047819;28;20091;-77
2022/08/17 02:55:39;;;;;;;34.53;30.83;;;22.30;99.90;;;;;;5045299;28;20050;-77
2022/08/17 02:58:06;;;;;;;32.75;29.45;;;22.30;99.90;;;;;;5046533;28;20438;-77
2022/08/17 03:00:43;;;;;;;34.15;30.85;;;22.20;99.90;;;;;;5045556;28;20047;-77
2022/08/17 03:03:12;;;;;;;40.03;35.72;;;22.20;99.90;;;;;;5046296;28;20022;-76
2022/08/17 03:05:38;;;;;;;38.92;34.67;;;22.20;99.90;;;;;;5049196;28;20033;-77
2022/08/17 03:08:05;;;;;;;31.70;28.00;;;22.20;99.90;;;;;;5045234;28;20087;-77
2022/08/17 03:10:31;;;;;;;29.85;26.67;;;22.20;99.90;;;;;;5044539;28;20488;-76
2022/08/17 03:12:58;;;;;;;26.40;23.73;;;22.20;99.90;;;;;;5034000;28;20025;-77
2022/08/17 03:15:32;;;;;;;30.50;27.45;;;22.10;99.90;;;;;;5033992;28;20381;-77
2022/08/17 03:17:59;;;;;;;29.85;26.77;;;22.10;99.90;;;;;;5038115;28;20025;-77
2022/08/17 03:20:26;;;;;;;30.85;27.77;;;22.10;99.90;;;;;;5044493;28;20089;-77
2022/08/17 03:22:54;;;;;;;30.90;27.90;;;22.10;99.90;;;;;;5046535;28;20025;-77
2022/08/17 03:25:25;;;;;;;34.03;30.17;;;22.10;99.90;;;;;;5042473;28;20520;-77
2022/08/17 03:27:51;;;;;;;37.88;33.92;;;22.10;99.90;;;;;;5047537;28;20072;-77
2022/08/17 03:30:17;;;;;;;36.72;32.97;;;22.10;99.90;;;;;;5042324;28;20033;-76
2022/08/17 03:32:46;;;;;;;38.17;34.15;;;22.00;99.90;;;;;;5049042;28;20017;-78
2022/08/17 03:35:14;;;;;;;36.63;32.65;;;22.00;99.90;;;;;;5033853;28;20041;-76
2022/08/17 03:37:40;;;;;;;39.00;34.60;;;22.00;99.90;;;;;;5047389;28;20010;-76
2022/08/17 03:40:07;;;;;;;40.55;35.90;;;22.00;99.90;;;;;;5043122;28;20038;-77
2022/08/17 03:42:33;;;;;;;40.55;36.33;;;21.90;99.90;;;;;;5049196;28;20083;-76
2022/08/17 03:45:00;;;;;;;35.42;31.73;;;21.90;99.90;;;;;;5049847;28;20039;-77
2022/08/17 03:58:26;;;;;;;33.95;30.55;;;21.90;99.90;;;;;;5048799;28;20074;-77
2022/08/17 04:00:52;;;;;;;33.25;29.67;;;21.80;99.90;;;;;;5047806;28;20045;-76
2022/08/17 04:03:17;;;;;;;34.80;31.00;;;21.80;99.90;;;;;;5049247;28;20477;-77
2022/08/17 04:05:43;;;;;;;36.47;32.88;;;21.80;99.90;;;;;;5041633;28;20032;-76
2022/08/17 04:08:09;;;;;;;35.05;30.70;;;21.80;99.90;;;;;;5047514;28;20400;-76
2022/08/17 04:10:35;;;;;;;43.70;38.92;;;21.70;99.90;;;;;;5041247;28;20043;-77
2022/08/17 04:13:02;;;;;;;34.05;30.85;;;21.40;99.90;;;;;;5046722;28;20413;-76
2022/08/17 04:15:29;;;;;;;43.15;38.15;;;21.40;99.90;;;;;;5048037;28;20028;-76
2022/08/17 04:17:55;;;;;;;43.33;38.03;;;21.30;99.90;;;;;;5045125;28;20017;-77
2022/08/17 04:20:30;;;;;;;40.92;36.63;;;21.20;99.90;;;;;;5043700;28;20037;-75
2022/08/17 04:22:57;;;;;;;38.67;32.40;;;21.40;99.90;;;;;;5031873;28;20041;-77
2022/08/17 04:25:23;;;;;;;30.80;27.80;;;21.30;99.90;;;;;;5048227;28;20104;-77
2022/08/17 04:27:49;;;;;;;34.45;30.83;;;21.20;99.90;;;;;;5045840;28;20080;-77
2022/08/17 04:30:14;;;;;;;33.15;29.83;;;21.40;99.90;;;;;;5032534;28;20037;-77
2022/08/17 04:33:11;;;;;;;35.80;32.08;;;21.50;99.90;;;;;;5046280;28;20536;-77
2022/08/17 04:35:40;;;;;;;37.72;33.78;;;21.50;99.90;;;;;;5032753;28;20025;-76
2022/08/17 04:38:07;;;;;;;46.55;38.63;;;21.50;99.90;;;;;;5046363;28;20052;-75
2022/08/17 04:43:20;;;;;;;44.67;39.85;;;21.70;99.90;;;;;;5049505;28;20398;-75
2022/08/17 04:45:50;;;;;;;47.78;42.55;;;21.80;99.90;;;;;;5026686;28;20432;-75
2022/08/17 04:48:15;;;;;;;47.85;42.67;;;21.80;99.90;;;;;;5044401;28;20028;-74
2022/08/17 04:50:46;;;;;;;45.20;38.63;;;21.80;99.90;;;;;;5050209;28;20029;-75
2022/08/17 04:53:12;;;;;;;49.70;42.00;;;21.80;99.90;;;;;;5033298;28;20488;-74
2022/08/17 04:55:39;;;;;;;42.05;37.60;;;21.80;99.90;;;;;;5050091;28;20029;-75
2022/08/17 04:58:05;;;;;;;44.08;39.38;;;21.80;99.90;;;;;;5046823;28;20056;-74
2022/08/17 05:00:31;;;;;;;51.55;44.97;;;21.80;99.90;;;;;;5041923;28;20033;-75
2022/08/17 05:02:57;;;;;;;50.65;41.47;;;21.80;99.90;;;;;;5033807;28;20021;-74
2022/08/17 05:05:26;;;;;;;45.63;40.50;;;21.80;99.90;;;;;;5048372;28;20493;-76
2022/08/17 05:07:54;;;;;;;50.40;44.42;;;21.80;99.90;;;;;;5049435;28;20021;-76
2022/08/17 05:10:24;;;;;;;50.45;42.97;;;21.80;99.90;;;;;;5037202;28;20043;-73
2022/08/17 05:12:58;;;;;;;52.40;44.25;;;21.80;99.90;;;;;;5046771;28;20481;-75
2022/08/17 05:15:24;;;;;;;52.35;46.47;;;21.80;99.90;;;;;;5028390;28;20036;-74
2022/08/17 05:17:50;;;;;;;55.72;44.55;;;21.80;99.90;;;;;;5051268;28;20033;-75
2022/08/17 05:20:16;;;;;;;43.95;39.25;;;21.80;99.90;;;;;;5037288;28;20041;-77
2022/08/17 05:22:54;;;;;;;51.65;46.15;;;21.70;99.90;;;;;;5041114;28;20362;-76
2022/08/17 05:25:22;;;;;;;51.35;45.97;;;21.70;99.90;;;;;;5044055;28;20056;-76
2022/08/17 05:27:48;;;;;;;57.03;48.20;;;21.60;99.90;;;;;;5041521;28;20075;-76
2022/08/17 05:30:16;;;;;;;54.65;46.63;;;21.70;99.90;;;;;;5043244;28;20425;-75
2022/08/17 05:32:57;;;;;;;53.80;45.55;;;21.70;99.90;;;;;;5030316;28;20112;-75
2022/08/17 05:35:24;;;;;;;50.00;44.47;;;21.70;99.90;;;;;;5046507;28;20105;-74
2022/08/17 05:37:49;;;;;;;52.72;44.22;;;21.80;99.90;;;;;;5044817;28;20032;-75
2022/08/17 05:40:16;;;;;;;53.60;46.97;;;21.90;99.90;;;;;;5021602;28;20033;-75
2022/08/17 05:42:43;;;;;;;52.10;44.03;;;21.90;99.90;;;;;;5041402;28;20052;-75
2022/08/17 05:45:14;;;;;;;46.92;42.00;;;22.00;99.90;;;;;;5047145;28;20385;-75
2022/08/17 05:47:41;;;;;;;54.22;44.80;;;22.00;99.90;;;;;;5031817;28;20024;-75
2022/08/17 05:50:09;;;;;;;53.90;47.45;;;22.00;99.90;;;;;;5043600;28;20071;-74
2022/08/17 05:53:28;;;;;;;44.85;39.30;;;22.10;99.90;;;;;;5021929;28;20017;-76
2022/08/17 05:56:06;;;;;;;47.45;41.17;;;22.10;99.90;;;;;;4990698;28;20442;-75
2022/08/17 05:59:19;;;;;;;49.80;41.90;;;22.10;99.90;;;;;;5050303;28;20417;-76
2022/08/17 06:02:05;;;;;;;42.53;37.90;;;22.20;99.90;;;;;;5024809;28;20045;-74
2022/08/17 06:04:34;;;;;;;43.50;38.78;;;22.20;99.90;;;;;;5051259;28;20025;-75
2022/08/17 06:07:20;;;;;;;44.13;39.38;;;22.10;99.90;;;;;;5051761;28;20049;-75
2022/08/17 06:10:01;;;;;;;44.03;39.45;;;22.20;99.90;;;;;;5050846;28;20355;-74
2022/08/17 06:12:51;;;;;;;44.17;38.85;;;22.30;99.90;;;;;;5054159;28;20091;-74
2022/08/17 06:15:32;;;;;;;48.72;42.00;;;22.20;99.90;;;;;;5056408;28;20031;-75
2022/08/17 06:18:07;;;;;;;41.00;36.70;;;22.30;99.90;;;;;;5060115;28;20028;-75
2022/08/17 06:20:58;;;;;;;45.03;38.17;;;22.40;99.90;;;;;;5064109;28;20040;-76
2022/08/17 06:23:37;;;;;;;41.28;37.08;;;22.40;99.90;;;;;;5053063;28;20115;-75
2022/08/17 06:26:26;;;;;;;46.38;40.03;;;22.50;99.90;;;;;;5042168;28;20028;-76
2022/08/17 06:28:57;;;;;;;42.92;38.50;;;22.50;99.90;;;;;;5062218;28;20035;-76
2022/08/17 06:31:31;;;;;;;51.73;45.83;;;22.60;99.90;;;;;;5015134;28;1316090;-75
2022/08/17 06:33:58;;;;;;;54.00;47.67;;;22.60;99.90;;;;;;5062575;28;20054;-76
2022/08/17 06:36:43;;;;;;;55.88;48.28;;;22.70;99.90;;;;;;5043176;28;20048;-75
2022/08/17 06:39:31;;;;;;;57.97;47.58;;;22.70;99.90;;;;;;5064181;28;20047;-74
2022/08/17 06:42:29;;;;;;;62.55;52.90;;;22.70;99.90;;;;;;5051497;28;20037;-76
2022/08/17 06:45:06;;;;;;;61.47;53.33;;;22.80;99.90;;;;;;5053531;28;20384;-76
2022/08/17 06:48:01;;;;;;;65.00;56.63;;;22.80;99.90;;;;;;5056759;28;20433;-74
2022/08/17 06:50:41;;;;;;;69.03;56.75;;;22.90;99.90;;;;;;5056085;28;20480;-73
2022/08/17 06:53:44;;;;;;;63.33;52.92;;;22.90;99.90;;;;;;5048587;28;20380;-73
2022/08/17 06:56:14;;;;;;;60.25;53.65;;;22.90;99.90;;;;;;5025536;28;20036;-73
2022/08/17 06:58:42;;;;;;;64.82;53.58;;;23.00;99.90;;;;;;5066424;28;20105;-73
2022/08/17 07:01:15;;;;;;;58.55;52.22;;;23.00;99.90;;;;;;5061763;28;20525;-72
2022/08/17 07:04:01;;;;;;;69.35;56.72;;;22.90;99.90;;;;;;5064681;28;20013;-73
2022/08/17 07:06:33;;;;;;;64.70;53.03;;;22.90;99.90;;;;;;5066235;28;20407;-72
2022/08/17 07:09:17;;;;;;;67.22;56.67;;;23.00;99.90;;;;;;5066085;28;20013;-72
2022/08/17 07:12:02;;;;;;;64.07;54.42;;;23.00;99.90;;;;;;5060293;28;20038;-75
2022/08/17 07:14:36;;;;;;;64.00;54.67;;;23.00;99.90;;;;;;5071911;28;20021;-76
2022/08/17 07:17:17;;;;;;;62.83;54.45;;;23.00;99.90;;;;;;5060575;28;20086;-76
2022/08/17 07:19:45;;;;;;;66.00;54.60;;;23.10;99.90;;;;;;5054715;28;20029;-76
2022/08/17 07:22:59;;;;;;;66.57;58.17;;;23.10;99.90;;;;;;5055600;28;20025;-76
2022/08/17 07:25:25;;;;;;;65.60;55.78;;;23.20;99.90;;;;;;4954131;29;20042;-76
2022/08/17 07:27:54;;;;;;;62.88;56.08;;;23.30;99.90;;;;;;4962206;28;20031;-76
2022/08/17 07:30:29;;;;;;;74.38;54.15;;;23.30;99.90;;;;;;5020292;28;20045;-75
2022/08/17 07:33:01;;;;;;;64.75;55.17;;;23.30;99.90;;;;;;5072483;28;20033;-76
2022/08/17 07:35:43;;;;;;;62.90;52.42;;;23.40;99.90;;;;;;5071686;28;20040;-76
2022/08/17 07:38:20;;;;;;;64.93;52.33;;;23.30;99.90;;;;;;5063536;28;20044;-76
2022/08/17 07:41:04;;;;;;;54.67;48.63;;;23.40;99.90;;;;;;5063869;28;20036;-76
2022/08/17 07:43:35;;;;;;;56.30;48.35;;;23.40;99.90;;;;;;5064984;28;20025;-76
2022/08/17 07:49:08;;;;;;;63.25;53.33;;;23.50;99.90;;;;;;5057022;28;20496;-76
2022/08/17 07:51:44;;;;;;;59.20;50.85;;;23.50;99.90;;;;;;5040342;28;20037;-76
2022/08/17 07:54:24;;;;;;;56.05;49.95;;;23.50;99.90;;;;;;5046757;28;20047;-76
2022/08/17 07:57:11;;;;;;;57.85;48.50;;;23.50;99.90;;;;;;5046625;28;20054;-76
2022/08/17 07:59:40;;;;;;;53.90;47.17;;;23.50;99.90;;;;;;5060844;28;20024;-77
2022/08/17 08:02:24;;;;;;;53.78;45.85;;;23.50;99.90;;;;;;5068266;28;20124;-76
2022/08/17 08:05:25;;;;;;;51.40;45.72;;;23.50;99.90;;;;;;5060831;28;20092;-76
2022/08/17 08:07:55;;;;;;;54.60;42.63;;;23.50;99.90;;;;;;5042567;28;20071;-76
2022/08/17 08:10:35;;;;;;;47.22;42.10;;;23.60;99.90;;;;;;5063286;28;20029;-76
2022/08/17 08:13:26;;;;;;;49.10;42.08;;;23.60;99.90;;;;;;5037835;28;20566;-75
2022/08/17 08:15:55;;;;;;;48.40;42.38;;;23.60;99.90;;;;;;5054126;28;20033;-76
2022/08/17 08:18:21;;;;;;;45.83;40.88;;;23.70;99.90;;;;;;5036303;28;20033;-76
2022/08/17 08:20:58;;;;;;;44.15;39.50;;;23.70;99.90;;;;;;5054400;28;20033;-76
2022/08/17 08:23:36;;;;;;;45.05;38.95;;;23.70;99.90;;;;;;5035793;28;20025;-76
2022/08/17 08:26:27;;;;;;;42.28;37.80;;;23.70;99.90;;;;;;5053918;28;20024;-75
2022/08/17 08:29:19;;;;;;;46.53;41.60;;;23.70;99.90;;;;;;5056495;28;20118;-76
2022/08/17 08:32:02;;;;;;;44.17;39.58;;;23.70;99.90;;;;;;5053902;28;20115;-76
2022/08/17 08:35:16;;;;;;;42.95;38.33;;;23.80;99.90;;;;;;5054073;28;20021;-75
2022/08/17 08:38:11;;;;;;;41.55;37.15;;;23.90;99.90;;;;;;5031731;28;20049;-76
2022/08/17 08:40:49;;;;;;;46.72;39.15;;;23.90;99.90;;;;;;5033737;28;20396;-76
2022/08/17 08:43:26;;;;;;;40.65;36.45;;;23.90;99.90;;;;;;5053145;28;20056;-76
2022/08/17 08:46:10;;;;;;;44.67;38.03;;;24.00;99.90;;;;;;5052596;28;20515;-76
2022/08/17 08:49:13;;;;;;;44.38;38.53;;;23.90;99.90;;;;;;5053817;28;20025;-76
2022/08/17 08:51:47;;;;;;;47.67;38.53;;;23.90;99.90;;;;;;5053240;28;20021;-76
2022/08/17 08:54:33;;;;;;;45.22;39.53;;;24.00;99.90;;;;;;5053223;28;20029;-76
2022/08/17 08:57:42;;;;;;;43.15;37.63;;;24.00;99.90;;;;;;5051346;28;20027;-76
2022/08/17 09:00:21;;;;;;;41.38;37.00;;;24.00;99.90;;;;;;5029349;28;20154;-75
2022/08/17 09:03:29;;;;;;;40.47;36.05;;;24.10;99.90;;;;;;5052797;28;20018;-74
2022/08/17 09:06:14;;;;;;;42.63;38.00;;;24.10;99.90;;;;;;4947253;28;20039;-74
2022/08/17 09:09:02;;;;;;;44.35;38.13;;;24.10;99.90;;;;;;5052339;28;20035;-72
2022/08/17 09:11:43;;;;;;;48.78;39.53;;;24.00;99.90;;;;;;5032813;28;20053;-72
2022/08/17 09:14:45;;;;;;;41.53;37.10;;;24.00;99.90;;;;;;5032803;28;20030;-73
2022/08/17 09:17:19;;;;;;;43.72;39.03;;;23.90;99.90;;;;;;5014827;28;20068;-74
2022/08/17 09:20:09;;;;;;;44.17;38.13;;;23.60;99.90;;;;;;5032111;28;20034;-74
2022/08/17 09:22:43;;;;;;;52.03;43.40;;;23.60;99.90;;;;;;5033296;28;20021;-73
2022/08/17 09:25:12;;;;;;;53.90;48.03;;;23.70;99.90;;;;;;5032730;28;20029;-75
2022/08/17 09:27:56;;;;;;;68.22;50.75;;;23.60;99.90;;;;;;5043121;28;20115;-75
2022/08/17 09:30:22;;;;;;;65.05;54.13;;;23.60;99.90;;;;;;5052103;28;20033;-75
2022/08/17 09:32:58;;;;;;;64.85;55.03;;;23.50;99.90;;;;;;5052845;28;20021;-74
2022/08/17 09:35:35;;;;;;;71.60;59.80;;;23.40;99.90;;;;;;5052017;28;20535;-74
2022/08/17 09:38:14;;;;;;;64.82;56.20;;;23.30;99.90;;;;;;5052365;28;20390;-75
2022/08/17 09:41:12;;;;;;;74.70;62.17;;;23.20;99.90;;;;;;5052046;28;20044;-74
2022/08/17 09:43:55;;;;;;;69.07;60.58;;;23.20;99.90;;;;;;5052313;28;20025;-74
2022/08/17 09:46:32;;;;;;;68.35;60.42;;;23.30;99.90;;;;;;5052204;28;20024;-74
2022/08/17 09:49:29;;;;;;;73.57;63.72;;;23.30;99.90;;;;;;5051874;28;20061;-74
2022/08/17 09:52:02;;;;;;;68.97;60.88;;;23.40;99.90;;;;;;5052338;28;20021;-74
2022/08/17 09:54:31;;;;;;;73.20;63.58;;;23.50;99.90;;;;;;5051254;28;20029;-73
2022/08/17 09:57:21;;;;;;;79.70;65.00;;;23.50;99.90;;;;;;5051725;28;20096;-73
2022/08/17 10:00:17;;;;;;;75.40;65.53;;;23.50;99.90;;;;;;5051691;28;20392;-73
2022/08/17 10:03:25;;;;;;;83.68;69.97;;;23.50;99.90;;;;;;5052678;28;20096;-74
2022/08/17 10:05:58;;;;;;;80.38;65.63;;;23.50;99.90;;;;;;5052276;28;20363;-73
2022/08/17 10:08:39;;;;;;;89.10;75.35;;;23.60;99.90;;;;;;5051529;28;20025;-75
2022/08/17 10:14:49;;;;;;;77.70;63.70;;;23.60;99.90;;;;;;5072062;28;20121;-73
2022/08/17 10:17:36;;;;;;;83.35;68.93;;;23.50;99.90;;;;;;5046504;28;20541;-73
2022/08/17 10:20:28;;;;;;;83.13;66.30;;;23.60;99.90;;;;;;5051105;28;20122;-74
2022/08/17 10:26:22;;;;;;;84.90;68.03;;;23.60;99.90;;;;;;5063605;28;20090;-74
2022/08/17 10:29:03;;;;;;;77.38;60.42;;;23.80;99.90;;;;;;5062595;28;20024;-76
2022/08/17 10:31:41;;;;;;;67.22;57.25;;;23.80;99.90;;;;;;5051747;28;20025;-77
2022/08/17 10:34:25;;;;;;;67.95;58.83;;;23.80;99.90;;;;;;5051565;28;20021;-77
2022/08/17 10:37:07;;;;;;;68.63;55.17;;;23.70;99.90;;;;;;5051747;28;20785;-77
2022/08/17 10:39:33;;;;;;;62.17;53.78;;;23.60;99.90;;;;;;5050922;28;20086;-77
2022/08/17 10:42:13;;;;;;;66.82;54.10;;;23.60;99.90;;;;;;5052073;28;20033;-76
2022/08/17 10:44:55;;;;;;;60.80;52.83;;;23.60;99.90;;;;;;5051728;28;20025;-77
2022/08/17 10:47:25;;;;;;;58.75;52.05;;;23.60;99.90;;;;;;5051307;28;20025;-77
2022/08/17 10:49:54;;;;;;;59.58;51.75;;;23.60;99.90;;;;;;5032889;28;20036;-77
2022/08/17 10:52:26;;;;;;;66.38;55.55;;;23.60;99.90;;;;;;5052064;28;20029;-77
2022/08/17 10:54:57;;;;;;;70.23;58.43;;;23.60;99.90;;;;;;5051337;28;20029;-77
2022/08/17 10:57:26;;;;;;;65.30;54.28;;;23.70;99.90;;;;;;5044356;28;20361;-74
2022/08/17 10:59:58;;;;;;;65.40;54.08;;;23.70;99.90;;;;;;5030980;28;20034;-73
2022/08/17 11:02:26;;;;;;;76.75;59.28;;;23.70;99.90;;;;;;5050482;28;20025;-74
2022/08/17 11:04:56;;;;;;;74.32;61.67;;;23.70;99.90;;;;;;5054897;28;20032;-73
2022/08/17 11:07:47;;;;;;;72.65;61.13;;;23.70;99.90;;;;;;5037016;28;20025;-73
2022/08/17 11:10:41;;;;;;;70.70;61.53;;;23.70;99.90;;;;;;5054228;28;20617;-73
2022/08/17 11:13:12;;;;;;;74.40;59.67;;;23.60;99.90;;;;;;5054996;28;20033;-74
2022/08/17 11:16:07;;;;;;;74.38;63.10;;;23.60;99.90;;;;;;5054408;28;20025;-73
2022/08/17 11:18:33;;;;;;;80.28;67.07;;;23.60;99.90;;;;;;5017021;28;20044;-74
2022/08/17 11:21:27;;;;;;;77.35;64.43;;;23.60;99.90;;;;;;5054973;28;20032;-75
2022/08/17 11:24:17;;;;;;;84.20;66.57;;;23.60;99.90;;;;;;5054740;28;20029;-75
2022/08/17 11:26:59;;;;;;;81.35;65.85;;;23.70;99.90;;;;;;5054518;28;20112;-73
2022/08/17 11:29:34;;;;;;;85.47;67.60;;;23.70;99.90;;;;;;5053822;28;20025;-74
2022/08/17 11:32:13;;;;;;;86.18;69.10;;;23.80;99.90;;;;;;5052105;28;20020;-74
2022/08/17 11:34:43;;;;;;;89.28;74.35;;;23.80;99.90;;;;;;5052014;28;20036;-74
2022/08/17 11:37:15;;;;;;;79.57;65.88;;;23.70;99.90;;;;;;5053887;28;20025;-73
2022/08/17 11:39:43;;;;;;;75.60;62.97;;;23.70;99.90;;;;;;5054730;28;20400;-74
2022/08/17 11:42:31;;;;;;;72.95;59.53;;;23.60;99.90;;;;;;5054417;28;20029;-74
2022/08/17 11:45:02;;;;;;;75.35;61.55;;;23.50;99.90;;;;;;5049206;28;20033;-74
2022/08/17 11:53:48;;;;;;;70.15;62.15;;;23.50;99.90;;;;;;5054135;28;20040;-74
2022/08/17 11:56:45;;;;;;;81.35;65.13;;;23.60;99.90;;;;;;5053668;28;20029;-74
2022/08/17 11:59:29;;;;;;;74.47;60.63;;;23.60;99.90;;;;;;5050046;28;20092;-74
2022/08/17 12:01:55;;;;;;;70.82;58.35;;;23.50;99.90;;;;;;5053375;28;20401;-74
2022/08/17 12:04:32;;;;;;;70.15;60.00;;;23.50;99.90;;;;;;5053819;28;20373;-74
2022/08/17 12:07:18;;;;;;;76.00;62.72;;;23.50;99.90;;;;;;5053608;28;20039;-74
2022/08/17 12:09:47;;;;;;;70.38;59.80;;;23.50;99.90;;;;;;5053959;28;20070;-75
2022/08/17 12:12:18;;;;;;;77.20;65.47;;;23.60;99.90;;;;;;5057763;28;20036;-74
2022/08/17 12:14:53;;;;;;;79.50;63.10;;;23.60;99.90;;;;;;5054145;28;20021;-73
2022/08/17 12:17:25;;;;;;;72.10;60.63;;;23.60;99.90;;;;;;5061684;28;20159;-73
2022/08/17 12:19:52;;;;;;;76.18;64.10;;;23.60;99.90;;;;;;5064874;28;20494;-73
2022/08/17 12:22:32;;;;;;;77.53;64.63;;;23.60;99.90;;;;;;5045603;28;20025;-73
2022/08/17 12:25:07;;;;;;;69.10;60.08;;;23.50;99.90;;;;;;5061286;28;20031;-73
2022/08/17 12:27:36;;;;;;;84.72;66.80;;;23.60;99.90;;;;;;5073816;28;20025;-74
2022/08/17 12:30:10;;;;;;;86.22;66.40;;;23.60;99.90;;;;;;5069756;28;20039;-73
2022/08/17 12:32:39;;;;;;;72.53;60.10;;;23.60;99.90;;;;;;5057841;28;20511;-74
2022/08/17 12:35:24;;;;;;;71.13;57.10;;;23.50;99.90;;;;;;5043293;28;20668;-77
2022/08/17 12:37:49;;;;;;;57.55;50.78;;;23.50;99.90;;;;;;5053636;28;20017;-73
2022/08/17 12:40:25;;;;;;;57.40;50.97;;;23.40;99.90;;;;;;5062594;28;20031;-74
2022/08/17 12:43:06;;;;;;;54.70;48.50;;;23.30;99.90;;;;;;5059398;28;20495;-76
2022/08/17 12:45:34;;;;;;;57.78;50.70;;;23.30;99.90;;;;;;5060718;28;20378;-75
2022/08/17 12:48:12;;;;;;;59.92;52.50;;;23.40;99.90;;;;;;5060869;28;20036;-76
2022/08/17 12:50:41;;;;;;;60.53;51.80;;;23.50;99.90;;;;;;5053004;28;20021;-76
2022/08/17 12:53:28;;;;;;;66.78;57.47;;;23.50;99.90;;;;;;5052092;28;20036;-70
2022/08/17 12:55:56;;;;;;;69.22;56.55;;;23.60;99.90;;;;;;5052795;28;20114;-70
2022/08/17 12:58:30;;;;;;;66.85;57.70;;;23.60;99.90;;;;;;5052126;28;20025;-71
2022/08/17 13:01:15;;;;;;;81.55;62.95;;;23.60;99.90;;;;;;5052436;28;20029;-71
2022/08/17 13:03:48;;;;;;;61.67;54.08;;;23.60;99.90;;;;;;5051303;28;20025;-71
2022/08/17 13:06:35;;;;;;;64.75;53.53;;;23.60;99.90;;;;;;5053099;28;20048;-71
2022/08/17 13:09:17;;;;;;;62.95;53.90;;;23.70;99.90;;;;;;5052329;28;20078;-71
2022/08/17 13:11:49;;;;;;;61.28;52.65;;;23.60;99.90;;;;;;5051319;28;20041;-72
2022/08/17 13:14:17;;;;;;;57.85;50.15;;;23.70;99.90;;;;;;5052316;28;20418;-72
2022/08/17 13:16:56;;;;;;;56.85;49.55;;;23.60;99.90;;;;;;5052087;28;20067;-71
2022/08/17 13:19:25;;;;;;;63.95;55.10;;;23.60;99.90;;;;;;5051040;28;20024;-71
2022/08/17 13:21:54;;;;;;;59.97;49.88;;;23.60;99.90;;;;;;5035726;28;20033;-72
2022/08/17 13:24:20;;;;;;;58.25;50.65;;;23.60;99.90;;;;;;5032430;28;20122;-71
2022/08/17 13:26:49;;;;;;;60.55;51.15;;;23.60;99.90;;;;;;5031372;28;20853;-71
2022/08/17 13:29:23;;;;;;;56.53;50.33;;;23.50;99.90;;;;;;5033099;28;20030;-71
2022/08/17 13:32:14;;;;;;;53.75;47.63;;;23.60;99.90;;;;;;5038172;28;20500;-71
2022/08/17 13:34:46;;;;;;;55.08;48.75;;;23.60;99.90;;;;;;5051749;28;20021;-72